sensor_id;sensor_type;location;lat;lon;timestamp;temperature;humidity
14049;DHT22;7099;53.922;10.728;2023-04-29T00:00:54;9.60;72.80
14049;DHT22;7099;53.922;10.728;2023-04-29T00:05:00;9.70;73.10
14049;DHT22;7099;53.922;10.728;2023-04-29T00:09:09;9.60;73.00
14049;DHT22;7099;53.922;10.728;2023-04-29T00:13:15;9.60;73.10
14049;DHT22;7099;53.922;10.728;2023-04-29T00:17:20;9.60;73.20
14049;DHT22;7099;53.922;10.728;2023-04-29T00:21:27;9.50;73.40
14049;DHT22;7099;53.922;10.728;2023-04-29T00:25:32;9.50;73.80
14049;DHT22;7099;53.922;10.728;2023-04-29T00:29:38;9.40;74.00
14049;DHT22;7099;53.922;10.728;2023-04-29T00:33:43;9.40;74.10
14049;DHT22;7099;53.922;10.728;2023-04-29T00:37:50;9.40;74.20
14049;DHT22;7099;53.922;10.728;2023-04-29T00:41:56;9.40;74.20
14049;DHT22;7099;53.922;10.728;2023-04-29T00:46:02;9.30;74.30
14049;DHT22;7099;53.922;10.728;2023-04-29T00:50:08;9.30;74.30
14049;DHT22;7099;53.922;10.728;2023-04-29T00:54:14;9.30;74.60
14049;DHT22;7099;53.922;10.728;2023-04-29T00:58:20;9.30;74.40
14049;DHT22;7099;53.922;10.728;2023-04-29T01:02:27;9.30;74.40
14049;DHT22;7099;53.922;10.728;2023-04-29T01:11:27;9.30;75.00
14049;DHT22;7099;53.922;10.728;2023-04-29T01:20:00;9.20;75.30
14049;DHT22;7099;53.922;10.728;2023-04-29T01:24:06;9.20;75.40
14049;DHT22;7099;53.922;10.728;2023-04-29T01:28:37;9.20;75.70
14049;DHT22;7099;53.922;10.728;2023-04-29T01:33:08;9.10;76.10
14049;DHT22;7099;53.922;10.728;2023-04-29T01:37:21;9.10;77.00
14049;DHT22;7099;53.922;10.728;2023-04-29T01:41:42;9.20;75.60
14049;DHT22;7099;53.922;10.728;2023-04-29T01:45:49;9.20;75.60
14049;DHT22;7099;53.922;10.728;2023-04-29T01:49:57;9.10;75.30
14049;DHT22;7099;53.922;10.728;2023-04-29T01:54:03;9.20;75.10
14049;DHT22;7099;53.922;10.728;2023-04-29T01:58:10;9.20;75.30
14049;DHT22;7099;53.922;10.728;2023-04-29T02:02:15;9.10;75.20
14049;DHT22;7099;53.922;10.728;2023-04-29T02:06:25;9.10;75.30
14049;DHT22;7099;53.922;10.728;2023-04-29T02:10:32;9.00;75.30
14049;DHT22;7099;53.922;10.728;2023-04-29T02:14:37;9.00;75.10
14049;DHT22;7099;53.922;10.728;2023-04-29T02:18:43;9.00;75.20
14049;DHT22;7099;53.922;10.728;2023-04-29T02:22:49;9.00;75.20
14049;DHT22;7099;53.922;10.728;2023-04-29T02:26:55;8.90;75.10
14049;DHT22;7099;53.922;10.728;2023-04-29T02:31:01;9.00;75.00
14049;DHT22;7099;53.922;10.728;2023-04-29T02:35:07;9.00;74.80
14049;DHT22;7099;53.922;10.728;2023-04-29T02:39:13;9.00;74.50
14049;DHT22;7099;53.922;10.728;2023-04-29T02:43:19;9.00;74.60
14049;DHT22;7099;53.922;10.728;2023-04-29T02:47:24;9.00;74.60
14049;DHT22;7099;53.922;10.728;2023-04-29T02:51:30;9.10;74.60
14049;DHT22;7099;53.922;10.728;2023-04-29T02:55:36;9.00;74.60
14049;DHT22;7099;53.922;10.728;2023-04-29T02:59:42;9.00;74.60
14049;DHT22;7099;53.922;10.728;2023-04-29T03:03:48;9.00;74.40
14049;DHT22;7099;53.922;10.728;2023-04-29T03:07:54;8.90;74.40
14049;DHT22;7099;53.922;10.728;2023-04-29T03:12:00;8.80;74.40
14049;DHT22;7099;53.922;10.728;2023-04-29T03:16:07;8.90;74.40
14049;DHT22;7099;53.922;10.728;2023-04-29T03:20:13;8.80;74.20
14049;DHT22;7099;53.922;10.728;2023-04-29T03:24:18;8.80;74.30
14049;DHT22;7099;53.922;10.728;2023-04-29T03:28:24;8.70;74.10
14049;DHT22;7099;53.922;10.728;2023-04-29T03:32:30;8.70;74.50
14049;DHT22;7099;53.922;10.728;2023-04-29T03:36:35;8.70;74.40
14049;DHT22;7099;53.922;10.728;2023-04-29T03:40:42;8.60;74.40
14049;DHT22;7099;53.922;10.728;2023-04-29T03:44:47;8.60;74.20
14049;DHT22;7099;53.922;10.728;2023-04-29T03:48:53;8.60;74.30
14049;DHT22;7099;53.922;10.728;2023-04-29T03:53:01;8.50;74.20
14049;DHT22;7099;53.922;10.728;2023-04-29T03:57:07;8.50;74.20
14049;DHT22;7099;53.922;10.728;2023-04-29T04:01:13;8.50;74.10
14049;DHT22;7099;53.922;10.728;2023-04-29T04:05:19;8.40;74.00
14049;DHT22;7099;53.922;10.728;2023-04-29T04:09:25;8.40;73.90
14049;DHT22;7099;53.922;10.728;2023-04-29T04:13:31;8.30;73.90
14049;DHT22;7099;53.922;10.728;2023-04-29T04:17:37;8.30;74.00
14049;DHT22;7099;53.922;10.728;2023-04-29T04:21:43;8.30;74.00
14049;DHT22;7099;53.922;10.728;2023-04-29T04:25:48;8.30;73.90
14049;DHT22;7099;53.922;10.728;2023-04-29T04:29:54;8.20;73.90
14049;DHT22;7099;53.922;10.728;2023-04-29T04:34:00;8.20;73.90
14049;DHT22;7099;53.922;10.728;2023-04-29T04:38:06;8.20;73.90
14049;DHT22;7099;53.922;10.728;2023-04-29T04:42:12;8.10;74.00
14049;DHT22;7099;53.922;10.728;2023-04-29T04:46:18;8.10;74.00
14049;DHT22;7099;53.922;10.728;2023-04-29T04:50:27;8.10;73.80
14049;DHT22;7099;53.922;10.728;2023-04-29T04:54:33;8.00;74.10
14049;DHT22;7099;53.922;10.728;2023-04-29T04:58:39;8.00;74.10
14049;DHT22;7099;53.922;10.728;2023-04-29T05:02:45;8.00;74.30
14049;DHT22;7099;53.922;10.728;2023-04-29T05:06:51;8.00;74.50
14049;DHT22;7099;53.922;10.728;2023-04-29T05:10:57;7.90;74.70
14049;DHT22;7099;53.922;10.728;2023-04-29T05:15:03;8.00;74.60
14049;DHT22;7099;53.922;10.728;2023-04-29T05:19:08;8.00;74.50
14049;DHT22;7099;53.922;10.728;2023-04-29T05:23:14;8.00;74.60
14049;DHT22;7099;53.922;10.728;2023-04-29T05:27:20;8.00;74.60
14049;DHT22;7099;53.922;10.728;2023-04-29T05:31:25;8.10;74.80
14049;DHT22;7099;53.922;10.728;2023-04-29T05:35:32;8.10;74.80
14049;DHT22;7099;53.922;10.728;2023-04-29T05:39:38;8.20;74.70
14049;DHT22;7099;53.922;10.728;2023-04-29T05:43:44;8.30;74.80
14049;DHT22;7099;53.922;10.728;2023-04-29T05:47:50;8.30;74.80
14049;DHT22;7099;53.922;10.728;2023-04-29T05:51:55;8.40;74.70
14049;DHT22;7099;53.922;10.728;2023-04-29T05:56:01;8.40;74.70
14049;DHT22;7099;53.922;10.728;2023-04-29T06:00:12;8.50;74.90
14049;DHT22;7099;53.922;10.728;2023-04-29T06:04:18;8.60;74.90
14049;DHT22;7099;53.922;10.728;2023-04-29T06:08:24;8.70;74.70
14049;DHT22;7099;53.922;10.728;2023-04-29T06:12:30;8.80;74.60
14049;DHT22;7099;53.922;10.728;2023-04-29T06:16:36;9.00;74.30
14049;DHT22;7099;53.922;10.728;2023-04-29T06:20:42;9.00;73.90
14049;DHT22;7099;53.922;10.728;2023-04-29T06:24:48;9.10;73.80
14049;DHT22;7099;53.922;10.728;2023-04-29T06:28:56;9.30;73.20
14049;DHT22;7099;53.922;10.728;2023-04-29T06:33:02;9.40;72.80
14049;DHT22;7099;53.922;10.728;2023-04-29T06:37:08;9.40;72.60
14049;DHT22;7099;53.922;10.728;2023-04-29T06:41:13;9.60;72.10
14049;DHT22;7099;53.922;10.728;2023-04-29T06:45:19;9.80;72.00
14049;DHT22;7099;53.922;10.728;2023-04-29T06:49:25;9.90;71.90
14049;DHT22;7099;53.922;10.728;2023-04-29T06:53:31;10.10;71.40
14049;DHT22;7099;53.922;10.728;2023-04-29T06:57:36;10.30;71.10
14049;DHT22;7099;53.922;10.728;2023-04-29T07:01:42;10.40;70.10
14049;DHT22;7099;53.922;10.728;2023-04-29T07:05:50;10.60;69.30
14049;DHT22;7099;53.922;10.728;2023-04-29T07:09:55;10.70;68.10
14049;DHT22;7099;53.922;10.728;2023-04-29T07:14:02;10.80;67.60
14049;DHT22;7099;53.922;10.728;2023-04-29T07:18:09;10.90;67.30
14049;DHT22;7099;53.922;10.728;2023-04-29T07:22:15;11.10;66.90
14049;DHT22;7099;53.922;10.728;2023-04-29T07:26:21;11.20;66.20
14049;DHT22;7099;53.922;10.728;2023-04-29T07:30:26;11.20;65.70
14049;DHT22;7099;53.922;10.728;2023-04-29T07:34:32;11.40;66.00
14049;DHT22;7099;53.922;10.728;2023-04-29T07:38:38;11.50;66.00
14049;DHT22;7099;53.922;10.728;2023-04-29T07:42:44;11.70;65.10
14049;DHT22;7099;53.922;10.728;2023-04-29T07:46:50;11.90;64.60
14049;DHT22;7099;53.922;10.728;2023-04-29T07:50:55;12.00;63.90
14049;DHT22;7099;53.922;10.728;2023-04-29T07:55:02;12.20;63.30
14049;DHT22;7099;53.922;10.728;2023-04-29T07:59:07;12.40;63.50
14049;DHT22;7099;53.922;10.728;2023-04-29T08:03:13;12.50;62.90
14049;DHT22;7099;53.922;10.728;2023-04-29T08:07:19;12.70;62.20
14049;DHT22;7099;53.922;10.728;2023-04-29T08:11:24;12.70;61.40
14049;DHT22;7099;53.922;10.728;2023-04-29T08:15:31;12.80;61.00
14049;DHT22;7099;53.922;10.728;2023-04-29T08:19:37;13.00;61.60
14049;DHT22;7099;53.922;10.728;2023-04-29T08:23:43;13.10;60.40
14049;DHT22;7099;53.922;10.728;2023-04-29T08:27:49;13.30;60.40
14049;DHT22;7099;53.922;10.728;2023-04-29T08:31:54;13.40;60.70
14049;DHT22;7099;53.922;10.728;2023-04-29T08:36:00;13.60;60.70
14049;DHT22;7099;53.922;10.728;2023-04-29T08:40:08;13.90;59.70
14049;DHT22;7099;53.922;10.728;2023-04-29T08:44:14;14.00;58.40
14049;DHT22;7099;53.922;10.728;2023-04-29T08:48:21;14.10;58.90
14049;DHT22;7099;53.922;10.728;2023-04-29T08:52:27;14.20;58.30
14049;DHT22;7099;53.922;10.728;2023-04-29T08:56:33;14.30;57.90
14049;DHT22;7099;53.922;10.728;2023-04-29T09:00:41;14.30;56.50
14049;DHT22;7099;53.922;10.728;2023-04-29T09:05:08;14.20;56.00
14049;DHT22;7099;53.922;10.728;2023-04-29T09:09:15;14.30;55.00
14049;DHT22;7099;53.922;10.728;2023-04-29T09:13:31;14.40;56.90
14049;DHT22;7099;53.922;10.728;2023-04-29T09:17:41;14.60;54.80
14049;DHT22;7099;53.922;10.728;2023-04-29T09:21:54;14.80;55.50
14049;DHT22;7099;53.922;10.728;2023-04-29T09:26:03;15.00;54.70
14049;DHT22;7099;53.922;10.728;2023-04-29T09:30:09;15.10;55.90
14049;DHT22;7099;53.922;10.728;2023-04-29T09:34:34;15.20;55.40
14049;DHT22;7099;53.922;10.728;2023-04-29T09:38:54;15.30;53.80
14049;DHT22;7099;53.922;10.728;2023-04-29T09:43:00;15.40;53.90
14049;DHT22;7099;53.922;10.728;2023-04-29T09:47:07;15.50;54.30
14049;DHT22;7099;53.922;10.728;2023-04-29T09:51:13;15.60;54.10
14049;DHT22;7099;53.922;10.728;2023-04-29T09:55:20;15.70;53.70
14049;DHT22;7099;53.922;10.728;2023-04-29T09:59:26;15.80;53.60
14049;DHT22;7099;53.922;10.728;2023-04-29T10:03:37;15.80;52.90
14049;DHT22;7099;53.922;10.728;2023-04-29T10:07:45;15.80;52.10
14049;DHT22;7099;53.922;10.728;2023-04-29T10:11:54;15.80;52.50
14049;DHT22;7099;53.922;10.728;2023-04-29T10:20:36;16.00;51.50
14049;DHT22;7099;53.922;10.728;2023-04-29T10:24:43;16.10;49.50
14049;DHT22;7099;53.922;10.728;2023-04-29T10:28:50;16.00;48.60
14049;DHT22;7099;53.922;10.728;2023-04-29T10:32:56;15.80;49.30
14049;DHT22;7099;53.922;10.728;2023-04-29T10:37:08;16.00;49.40
14049;DHT22;7099;53.922;10.728;2023-04-29T10:41:20;16.20;51.70
14049;DHT22;7099;53.922;10.728;2023-04-29T10:45:31;16.60;48.40
14049;DHT22;7099;53.922;10.728;2023-04-29T10:50:00;16.60;48.10
14049;DHT22;7099;53.922;10.728;2023-04-29T10:54:16;16.60;46.70
14049;DHT22;7099;53.922;10.728;2023-04-29T10:58:44;16.80;47.40
14049;DHT22;7099;53.922;10.728;2023-04-29T11:02:52;16.90;46.80
14049;DHT22;7099;53.922;10.728;2023-04-29T11:06:59;17.00;48.00
14049;DHT22;7099;53.922;10.728;2023-04-29T11:11:06;17.10;47.40
14049;DHT22;7099;53.922;10.728;2023-04-29T11:15:17;17.20;46.10
14049;DHT22;7099;53.922;10.728;2023-04-29T11:19:24;17.20;46.40
14049;DHT22;7099;53.922;10.728;2023-04-29T11:23:37;17.30;46.30
14049;DHT22;7099;53.922;10.728;2023-04-29T11:27:45;17.30;46.10
14049;DHT22;7099;53.922;10.728;2023-04-29T11:32:00;17.40;47.60
14049;DHT22;7099;53.922;10.728;2023-04-29T11:36:06;17.70;45.80
14049;DHT22;7099;53.922;10.728;2023-04-29T11:40:14;17.70;45.50
14049;DHT22;7099;53.922;10.728;2023-04-29T11:44:21;17.80;45.40
14049;DHT22;7099;53.922;10.728;2023-04-29T11:48:27;17.80;44.80
14049;DHT22;7099;53.922;10.728;2023-04-29T11:52:35;17.80;45.00
14049;DHT22;7099;53.922;10.728;2023-04-29T11:56:42;17.80;44.40
14049;DHT22;7099;53.922;10.728;2023-04-29T12:00:48;18.00;44.80
14049;DHT22;7099;53.922;10.728;2023-04-29T12:04:54;18.20;44.50
14049;DHT22;7099;53.922;10.728;2023-04-29T12:09:02;18.30;44.60
14049;DHT22;7099;53.922;10.728;2023-04-29T12:13:08;18.40;44.80
14049;DHT22;7099;53.922;10.728;2023-04-29T12:17:16;18.30;44.40
14049;DHT22;7099;53.922;10.728;2023-04-29T12:21:21;18.20;44.60
14049;DHT22;7099;53.922;10.728;2023-04-29T12:25:27;18.20;45.20
14049;DHT22;7099;53.922;10.728;2023-04-29T12:29:35;18.40;45.10
14049;DHT22;7099;53.922;10.728;2023-04-29T12:33:42;18.40;44.30
14049;DHT22;7099;53.922;10.728;2023-04-29T12:37:51;18.30;44.00
14049;DHT22;7099;53.922;10.728;2023-04-29T12:41:58;18.20;44.90
14049;DHT22;7099;53.922;10.728;2023-04-29T12:46:09;18.40;45.00
14049;DHT22;7099;53.922;10.728;2023-04-29T12:50:17;18.40;43.90
14049;DHT22;7099;53.922;10.728;2023-04-29T12:54:22;18.40;44.20
14049;DHT22;7099;53.922;10.728;2023-04-29T12:58:28;18.40;43.80
14049;DHT22;7099;53.922;10.728;2023-04-29T13:02:34;18.40;44.10
14049;DHT22;7099;53.922;10.728;2023-04-29T13:06:41;18.50;43.60
14049;DHT22;7099;53.922;10.728;2023-04-29T13:10:46;18.40;43.80
14049;DHT22;7099;53.922;10.728;2023-04-29T13:14:52;18.20;44.00
14049;DHT22;7099;53.922;10.728;2023-04-29T13:19:02;18.20;44.50
14049;DHT22;7099;53.922;10.728;2023-04-29T13:23:27;18.10;44.50
14049;DHT22;7099;53.922;10.728;2023-04-29T13:27:33;18.10;44.80
14049;DHT22;7099;53.922;10.728;2023-04-29T13:31:39;18.10;44.90
14049;DHT22;7099;53.922;10.728;2023-04-29T13:35:45;18.00;44.80
14049;DHT22;7099;53.922;10.728;2023-04-29T13:39:52;17.80;44.80
14049;DHT22;7099;53.922;10.728;2023-04-29T13:44:01;17.70;45.00
14049;DHT22;7099;53.922;10.728;2023-04-29T13:48:11;17.40;45.90
14049;DHT22;7099;53.922;10.728;2023-04-29T13:52:36;17.20;46.50
14049;DHT22;7099;53.922;10.728;2023-04-29T13:57:01;17.10;46.90
14049;DHT22;7099;53.922;10.728;2023-04-29T14:01:13;17.00;47.10
14049;DHT22;7099;53.922;10.728;2023-04-29T14:05:40;17.00;47.00
14049;DHT22;7099;53.922;10.728;2023-04-29T14:09:46;17.20;45.30
14049;DHT22;7099;53.922;10.728;2023-04-29T14:13:53;17.20;44.60
14049;DHT22;7099;53.922;10.728;2023-04-29T14:17:59;17.00;44.60
14049;DHT22;7099;53.922;10.728;2023-04-29T14:22:04;17.10;44.90
14049;DHT22;7099;53.922;10.728;2023-04-29T14:26:10;17.50;44.60
14049;DHT22;7099;53.922;10.728;2023-04-29T14:30:32;17.30;44.30
14049;DHT22;7099;53.922;10.728;2023-04-29T14:34:37;17.40;44.00
14049;DHT22;7099;53.922;10.728;2023-04-29T14:38:43;17.20;43.50
14049;DHT22;7099;53.922;10.728;2023-04-29T14:42:49;17.00;43.80
14049;DHT22;7099;53.922;10.728;2023-04-29T14:46:54;17.30;43.60
14049;DHT22;7099;53.922;10.728;2023-04-29T14:51:01;17.80;42.10
14049;DHT22;7099;53.922;10.728;2023-04-29T14:55:06;17.80;42.80
14049;DHT22;7099;53.922;10.728;2023-04-29T14:59:13;17.90;42.70
14049;DHT22;7099;53.922;10.728;2023-04-29T15:03:18;17.80;43.00
14049;DHT22;7099;53.922;10.728;2023-04-29T15:07:27;17.30;43.80
14049;DHT22;7099;53.922;10.728;2023-04-29T15:11:35;17.60;44.50
14049;DHT22;7099;53.922;10.728;2023-04-29T15:15:41;17.70;44.50
14049;DHT22;7099;53.922;10.728;2023-04-29T15:19:47;17.80;44.90
14049;DHT22;7099;53.922;10.728;2023-04-29T15:23:52;18.10;44.20
14049;DHT22;7099;53.922;10.728;2023-04-29T15:27:58;18.40;44.10
14049;DHT22;7099;53.922;10.728;2023-04-29T15:32:04;18.50;43.20
14049;DHT22;7099;53.922;10.728;2023-04-29T15:36:11;18.30;43.40
14049;DHT22;7099;53.922;10.728;2023-04-29T15:40:17;18.10;43.70
14049;DHT22;7099;53.922;10.728;2023-04-29T15:44:24;18.20;42.20
14049;DHT22;7099;53.922;10.728;2023-04-29T15:48:29;18.40;41.30
14049;DHT22;7099;53.922;10.728;2023-04-29T15:52:35;18.60;41.00
14049;DHT22;7099;53.922;10.728;2023-04-29T15:56:42;18.70;39.90
14049;DHT22;7099;53.922;10.728;2023-04-29T16:00:48;18.70;39.60
14049;DHT22;7099;53.922;10.728;2023-04-29T16:04:55;18.70;39.90
14049;DHT22;7099;53.922;10.728;2023-04-29T16:09:03;18.80;40.00
14049;DHT22;7099;53.922;10.728;2023-04-29T16:13:09;18.70;39.60
14049;DHT22;7099;53.922;10.728;2023-04-29T16:17:15;18.70;39.70
14049;DHT22;7099;53.922;10.728;2023-04-29T16:21:20;18.60;39.50
14049;DHT22;7099;53.922;10.728;2023-04-29T16:25:26;18.40;39.60
14049;DHT22;7099;53.922;10.728;2023-04-29T16:29:31;18.40;39.70
14049;DHT22;7099;53.922;10.728;2023-04-29T16:33:38;18.40;40.20
14049;DHT22;7099;53.922;10.728;2023-04-29T16:37:44;18.10;40.20
14049;DHT22;7099;53.922;10.728;2023-04-29T16:41:49;17.90;40.90
14049;DHT22;7099;53.922;10.728;2023-04-29T16:45:55;17.60;40.70
14049;DHT22;7099;53.922;10.728;2023-04-29T16:50:02;17.30;40.90
14049;DHT22;7099;53.922;10.728;2023-04-29T16:54:08;17.20;41.80
14049;DHT22;7099;53.922;10.728;2023-04-29T16:58:13;17.20;41.50
14049;DHT22;7099;53.922;10.728;2023-04-29T17:02:19;17.20;41.90
14049;DHT22;7099;53.922;10.728;2023-04-29T17:06:25;17.10;41.90
14049;DHT22;7099;53.922;10.728;2023-04-29T17:10:31;16.80;42.00
14049;DHT22;7099;53.922;10.728;2023-04-29T17:14:37;16.80;42.20
14049;DHT22;7099;53.922;10.728;2023-04-29T17:18:44;16.70;42.30
14049;DHT22;7099;53.922;10.728;2023-04-29T17:22:50;16.60;42.50
14049;DHT22;7099;53.922;10.728;2023-04-29T17:26:56;16.50;42.30
14049;DHT22;7099;53.922;10.728;2023-04-29T17:31:03;16.30;42.10
14049;DHT22;7099;53.922;10.728;2023-04-29T17:35:10;16.00;42.60
14049;DHT22;7099;53.922;10.728;2023-04-29T17:39:16;15.80;43.20
14049;DHT22;7099;53.922;10.728;2023-04-29T17:43:21;15.60;43.40
14049;DHT22;7099;53.922;10.728;2023-04-29T17:47:27;15.40;44.00
14049;DHT22;7099;53.922;10.728;2023-04-29T17:51:33;15.20;44.40
14049;DHT22;7099;53.922;10.728;2023-04-29T17:55:40;15.00;44.60
14049;DHT22;7099;53.922;10.728;2023-04-29T17:59:47;14.90;44.50
14049;DHT22;7099;53.922;10.728;2023-04-29T18:03:52;14.70;43.90
14049;DHT22;7099;53.922;10.728;2023-04-29T18:07:58;14.50;43.30
14049;DHT22;7099;53.922;10.728;2023-04-29T18:12:04;14.20;43.60
14049;DHT22;7099;53.922;10.728;2023-04-29T18:16:10;14.00;43.70
14049;DHT22;7099;53.922;10.728;2023-04-29T18:20:15;13.80;44.00
14049;DHT22;7099;53.922;10.728;2023-04-29T18:24:24;13.60;44.00
14049;DHT22;7099;53.922;10.728;2023-04-29T18:28:30;13.40;44.40
14049;DHT22;7099;53.922;10.728;2023-04-29T18:32:36;13.20;44.80
14049;DHT22;7099;53.922;10.728;2023-04-29T18:36:42;13.10;45.30
14049;DHT22;7099;53.922;10.728;2023-04-29T18:40:48;13.00;45.40
14049;DHT22;7099;53.922;10.728;2023-04-29T18:44:53;12.90;45.90
14049;DHT22;7099;53.922;10.728;2023-04-29T18:48:59;12.60;46.20
14049;DHT22;7099;53.922;10.728;2023-04-29T18:53:05;12.50;46.60
14049;DHT22;7099;53.922;10.728;2023-04-29T18:57:11;12.40;47.00
14049;DHT22;7099;53.922;10.728;2023-04-29T19:01:17;12.20;47.40
14049;DHT22;7099;53.922;10.728;2023-04-29T19:05:22;12.00;47.50
14049;DHT22;7099;53.922;10.728;2023-04-29T19:09:28;11.90;48.00
14049;DHT22;7099;53.922;10.728;2023-04-29T19:13:36;11.80;48.10
14049;DHT22;7099;53.922;10.728;2023-04-29T19:17:42;11.70;48.30
14049;DHT22;7099;53.922;10.728;2023-04-29T19:21:48;11.50;48.70
14049;DHT22;7099;53.922;10.728;2023-04-29T19:25:54;11.40;49.00
14049;DHT22;7099;53.922;10.728;2023-04-29T19:29:59;11.30;49.30
14049;DHT22;7099;53.922;10.728;2023-04-29T19:34:05;11.10;49.80
14049;DHT22;7099;53.922;10.728;2023-04-29T19:38:11;11.00;50.10
14049;DHT22;7099;53.922;10.728;2023-04-29T19:42:16;10.90;50.50
14049;DHT22;7099;53.922;10.728;2023-04-29T19:46:22;10.70;50.80
14049;DHT22;7099;53.922;10.728;2023-04-29T19:50:28;10.60;51.20
14049;DHT22;7099;53.922;10.728;2023-04-29T19:54:33;10.40;51.50
14049;DHT22;7099;53.922;10.728;2023-04-29T19:58:39;10.30;51.90
14049;DHT22;7099;53.922;10.728;2023-04-29T20:02:45;10.20;52.70
14049;DHT22;7099;53.922;10.728;2023-04-29T20:06:54;10.10;52.50
14049;DHT22;7099;53.922;10.728;2023-04-29T20:11:00;9.90;52.80
14049;DHT22;7099;53.922;10.728;2023-04-29T20:15:08;9.80;53.00
14049;DHT22;7099;53.922;10.728;2023-04-29T20:19:14;9.70;53.30
14049;DHT22;7099;53.922;10.728;2023-04-29T20:23:19;9.60;53.60
14049;DHT22;7099;53.922;10.728;2023-04-29T20:27:25;9.50;53.80
14049;DHT22;7099;53.922;10.728;2023-04-29T20:31:31;9.40;54.50
14049;DHT22;7099;53.922;10.728;2023-04-29T20:35:37;9.40;54.30
14049;DHT22;7099;53.922;10.728;2023-04-29T20:39:42;9.30;54.50
14049;DHT22;7099;53.922;10.728;2023-04-29T20:43:48;9.20;54.80
14049;DHT22;7099;53.922;10.728;2023-04-29T20:47:53;9.10;55.00
14049;DHT22;7099;53.922;10.728;2023-04-29T20:51:59;8.90;55.10
14049;DHT22;7099;53.922;10.728;2023-04-29T20:56:05;8.80;55.20
14049;DHT22;7099;53.922;10.728;2023-04-29T21:00:12;8.70;55.40
14049;DHT22;7099;53.922;10.728;2023-04-29T21:04:18;8.70;55.40
14049;DHT22;7099;53.922;10.728;2023-04-29T21:08:25;8.60;55.50
14049;DHT22;7099;53.922;10.728;2023-04-29T21:12:31;8.50;55.40
14049;DHT22;7099;53.922;10.728;2023-04-29T21:16:36;8.40;55.40
14049;DHT22;7099;53.922;10.728;2023-04-29T21:20:42;8.30;55.50
14049;DHT22;7099;53.922;10.728;2023-04-29T21:24:47;8.20;55.50
14049;DHT22;7099;53.922;10.728;2023-04-29T21:28:53;8.20;55.60
14049;DHT22;7099;53.922;10.728;2023-04-29T21:32:58;8.20;55.60
14049;DHT22;7099;53.922;10.728;2023-04-29T21:37:04;8.10;55.70
14049;DHT22;7099;53.922;10.728;2023-04-29T21:41:25;7.90;55.80
14049;DHT22;7099;53.922;10.728;2023-04-29T21:45:32;7.80;56.10
14049;DHT22;7099;53.922;10.728;2023-04-29T21:49:38;7.80;56.10
14049;DHT22;7099;53.922;10.728;2023-04-29T21:53:44;7.70;56.20
14049;DHT22;7099;53.922;10.728;2023-04-29T21:57:50;7.60;56.30
14049;DHT22;7099;53.922;10.728;2023-04-29T22:01:55;7.60;56.40
14049;DHT22;7099;53.922;10.728;2023-04-29T22:06:04;7.50;56.60
14049;DHT22;7099;53.922;10.728;2023-04-29T22:10:10;7.40;56.80
14049;DHT22;7099;53.922;10.728;2023-04-29T22:14:16;7.40;57.10
14049;DHT22;7099;53.922;10.728;2023-04-29T22:18:21;7.30;57.30
14049;DHT22;7099;53.922;10.728;2023-04-29T22:22:27;7.20;57.40
14049;DHT22;7099;53.922;10.728;2023-04-29T22:26:32;7.10;57.70
14049;DHT22;7099;53.922;10.728;2023-04-29T22:30:38;7.10;57.90
14049;DHT22;7099;53.922;10.728;2023-04-29T22:34:44;7.00;58.20
14049;DHT22;7099;53.922;10.728;2023-04-29T22:38:49;6.90;58.60
14049;DHT22;7099;53.922;10.728;2023-04-29T22:42:55;6.80;58.60
14049;DHT22;7099;53.922;10.728;2023-04-29T22:47:01;6.80;58.70
14049;DHT22;7099;53.922;10.728;2023-04-29T22:51:07;6.80;58.70
14049;DHT22;7099;53.922;10.728;2023-04-29T22:55:13;6.70;58.80
14049;DHT22;7099;53.922;10.728;2023-04-29T22:59:19;6.60;59.00
14049;DHT22;7099;53.922;10.728;2023-04-29T23:03:26;6.60;58.90
14049;DHT22;7099;53.922;10.728;2023-04-29T23:07:31;6.60;59.20
14049;DHT22;7099;53.922;10.728;2023-04-29T23:11:37;6.60;59.10
14049;DHT22;7099;53.922;10.728;2023-04-29T23:15:43;6.60;59.10
14049;DHT22;7099;53.922;10.728;2023-04-29T23:19:49;6.60;59.10
14049;DHT22;7099;53.922;10.728;2023-04-29T23:23:55;6.50;59.10
14049;DHT22;7099;53.922;10.728;2023-04-29T23:28:00;6.50;59.20
14049;DHT22;7099;53.922;10.728;2023-04-29T23:32:06;6.50;59.30
14049;DHT22;7099;53.922;10.728;2023-04-29T23:36:11;6.40;59.40
14049;DHT22;7099;53.922;10.728;2023-04-29T23:40:17;6.50;59.50
14049;DHT22;7099;53.922;10.728;2023-04-29T23:44:23;6.40;59.40
14049;DHT22;7099;53.922;10.728;2023-04-29T23:48:29;6.40;59.60
14049;DHT22;7099;53.922;10.728;2023-04-29T23:52:35;6.30;59.60
14049;DHT22;7099;53.922;10.728;2023-04-29T23:56:40;6.30;59.60
